createdAt,value
2022-10-26T00:01:04.097Z,8.80
2022-10-26T00:03:30.948Z,8.90
2022-10-26T00:06:12.941Z,8.90
2022-10-26T00:08:39.986Z,8.90
2022-10-26T00:11:07.678Z,8.90
2022-10-26T00:13:35.488Z,8.80
2022-10-26T00:16:07.163Z,8.80
2022-10-26T00:18:33.720Z,8.70
2022-10-26T00:21:07.653Z,8.80
2022-10-26T00:23:34.386Z,8.70
2022-10-26T00:26:01.341Z,8.70
2022-10-26T00:28:28.379Z,8.80
2022-10-26T00:30:55.127Z,8.80
2022-10-26T00:33:21.807Z,8.80
2022-10-26T00:35:52.815Z,8.80
2022-10-26T00:38:19.742Z,8.80
2022-10-26T00:40:47.359Z,8.90
2022-10-26T00:43:35.861Z,8.80
2022-10-26T00:46:04.967Z,8.90
2022-10-26T00:48:45.886Z,8.80
2022-10-26T00:51:34.202Z,8.70
2022-10-26T00:54:03.992Z,8.80
2022-10-26T00:56:32.238Z,8.90
2022-10-26T00:59:03.344Z,8.80
2022-10-26T01:01:33.295Z,8.80
2022-10-26T01:04:00.827Z,8.90
2022-10-26T01:06:30.141Z,8.90
2022-10-26T01:08:56.789Z,9.00
2022-10-26T01:11:23.665Z,9.00
2022-10-26T01:13:53.074Z,9.00
2022-10-26T01:16:38.406Z,9.10
2022-10-26T01:19:15.870Z,9.20
2022-10-26T01:22:07.271Z,9.10
2022-10-26T01:24:55.651Z,9.10
2022-10-26T01:27:34.113Z,9.00
2022-10-26T01:30:20.255Z,9.00
2022-10-26T01:33:12.621Z,9.10
2022-10-26T01:36:00.647Z,9.10
2022-10-26T01:38:47.133Z,9.20
2022-10-26T01:41:21.590Z,9.30
2022-10-26T01:44:28.569Z,9.30
2022-10-26T01:46:57.962Z,9.30
2022-10-26T01:49:33.271Z,9.30
2022-10-26T01:51:59.958Z,9.30
2022-10-26T01:54:26.589Z,9.30
2022-10-26T01:57:00.358Z,9.30
2022-10-26T01:59:59.106Z,9.40
2022-10-26T02:02:42.289Z,9.30
2022-10-26T02:05:26.522Z,9.40
2022-10-26T02:08:04.896Z,9.40
2022-10-26T02:10:43.677Z,9.50
2022-10-26T02:13:25.430Z,9.50
2022-10-26T02:16:11.549Z,9.40
2022-10-26T02:18:44.447Z,9.30
2022-10-26T02:21:15.865Z,9.40
2022-10-26T02:23:45.342Z,9.40
2022-10-26T02:26:15.410Z,9.40
2022-10-26T02:28:46.990Z,9.50
2022-10-26T02:31:15.247Z,9.50
2022-10-26T02:33:46.818Z,9.60
2022-10-26T02:36:18.056Z,9.50
2022-10-26T02:38:46.603Z,9.50
2022-10-26T02:41:15.895Z,9.60
2022-10-26T02:43:48.247Z,9.60
2022-10-26T02:46:18.370Z,9.60
2022-10-26T02:48:45.231Z,9.60
2022-10-26T02:51:13.235Z,9.60
2022-10-26T02:53:57.750Z,9.60
2022-10-26T02:56:52.435Z,9.60
2022-10-26T02:59:22.071Z,9.60
2022-10-26T03:01:50.936Z,9.60
2022-10-26T03:04:17.676Z,9.70
2022-10-26T03:06:53.374Z,9.70
2022-10-26T03:09:21.151Z,9.60
2022-10-26T03:11:50.183Z,9.60
2022-10-26T03:14:16.814Z,9.70
2022-10-26T03:16:43.525Z,9.70
2022-10-26T03:19:10.223Z,9.70
2022-10-26T03:21:36.827Z,9.70
2022-10-26T03:24:03.558Z,9.80
2022-10-26T03:26:30.174Z,9.80
2022-10-26T03:28:56.790Z,9.80
2022-10-26T03:31:23.402Z,9.80
2022-10-26T03:33:50.065Z,9.90
2022-10-26T03:36:16.752Z,9.90
2022-10-26T03:38:43.331Z,9.80
2022-10-26T03:41:09.904Z,9.90
2022-10-26T03:43:36.609Z,9.90
2022-10-26T03:46:03.217Z,9.90
2022-10-26T03:48:29.797Z,9.90
2022-10-26T03:50:59.718Z,10.00
2022-10-26T03:53:27.011Z,10.00
2022-10-26T03:55:53.629Z,10.00
2022-10-26T03:58:20.405Z,10.10
2022-10-26T04:00:47.840Z,10.00
2022-10-26T04:03:14.445Z,10.10
2022-10-26T04:05:41.071Z,10.10
2022-10-26T04:08:08.808Z,10.10
2022-10-26T04:10:35.524Z,10.20
2022-10-26T04:13:02.323Z,10.20
2022-10-26T04:15:29.408Z,10.20
2022-10-26T04:18:00.761Z,10.30
2022-10-26T04:20:28.394Z,10.40
2022-10-26T04:23:03.561Z,10.40
2022-10-26T04:25:33.068Z,10.50
2022-10-26T04:28:01.019Z,10.50
2022-10-26T04:30:27.780Z,10.60
2022-10-26T04:32:54.385Z,10.60
2022-10-26T04:35:21.016Z,10.60
2022-10-26T04:37:47.821Z,10.70
2022-10-26T04:40:14.714Z,10.70
2022-10-26T04:42:46.428Z,10.80
2022-10-26T04:45:14.913Z,10.80
2022-10-26T04:47:42.132Z,10.80
2022-10-26T04:50:10.614Z,10.80
2022-10-26T04:52:37.510Z,10.80
2022-10-26T04:55:06.147Z,10.80
2022-10-26T04:57:36.032Z,10.90
2022-10-26T05:00:04.532Z,10.90
2022-10-26T05:02:31.185Z,10.90
2022-10-26T05:04:57.936Z,10.80
2022-10-26T05:07:24.580Z,10.80
2022-10-26T05:09:51.167Z,10.80
2022-10-26T05:12:17.787Z,10.80
2022-10-26T05:14:44.492Z,10.80
2022-10-26T05:17:11.071Z,10.80
2022-10-26T05:19:37.724Z,10.80
2022-10-26T05:22:04.624Z,10.80
2022-10-26T05:24:31.313Z,10.80
2022-10-26T05:26:57.979Z,10.90
2022-10-26T05:29:24.547Z,10.90
2022-10-26T05:31:51.913Z,10.90
2022-10-26T05:34:18.506Z,10.90
2022-10-26T05:36:45.115Z,10.90
2022-10-26T05:39:11.685Z,10.90
2022-10-26T05:41:38.307Z,10.90
2022-10-26T05:44:04.946Z,10.90
2022-10-26T05:46:31.560Z,10.90
2022-10-26T05:48:58.227Z,10.90
2022-10-26T05:51:24.793Z,10.90
2022-10-26T05:53:54.281Z,10.80
2022-10-26T05:56:31.229Z,10.90
2022-10-26T05:58:59.028Z,10.80
2022-10-26T06:01:31.424Z,10.90
2022-10-26T06:04:13.153Z,10.90
2022-10-26T06:06:43.986Z,11.00
2022-10-26T06:09:12.142Z,11.00
2022-10-26T06:11:39.168Z,11.00
2022-10-26T06:14:07.126Z,11.00
2022-10-26T06:16:42.612Z,11.00
2022-10-26T06:19:15.142Z,11.10
2022-10-26T06:22:21.846Z,11.10
2022-10-26T06:25:21.005Z,11.20
2022-10-26T06:28:18.365Z,11.30
2022-10-26T06:30:45.109Z,11.30
2022-10-26T06:33:25.026Z,11.20
2022-10-26T06:36:13.451Z,11.20
2022-10-26T06:38:44.296Z,11.30
2022-10-26T06:41:15.385Z,11.30
2022-10-26T06:43:42.330Z,11.30
2022-10-26T06:46:34.486Z,11.30
2022-10-26T06:49:36.457Z,11.30
2022-10-26T06:52:20.790Z,11.30
2022-10-26T06:54:49.554Z,11.30
2022-10-26T06:57:19.096Z,11.30
2022-10-26T06:59:48.135Z,11.40
2022-10-26T07:02:15.140Z,11.30
2022-10-26T07:04:43.517Z,11.40
2022-10-26T07:07:13.749Z,11.30
2022-10-26T07:09:40.434Z,11.40
2022-10-26T07:12:07.245Z,11.40
2022-10-26T07:14:33.900Z,11.50
2022-10-26T07:17:00.733Z,11.50
2022-10-26T07:19:27.393Z,11.60
2022-10-26T07:21:59.658Z,11.60
2022-10-26T07:24:26.539Z,11.60
2022-10-26T07:26:57.483Z,11.70
2022-10-26T07:29:25.512Z,11.70
2022-10-26T07:34:20.508Z,11.80
2022-10-26T07:36:47.249Z,11.90
2022-10-26T07:39:13.876Z,12.00
2022-10-26T07:41:40.469Z,12.00
2022-10-26T07:44:10.163Z,12.00
2022-10-26T07:46:36.769Z,12.00
2022-10-26T07:49:03.437Z,12.10
2022-10-26T07:51:30.002Z,12.10
2022-10-26T07:53:56.579Z,12.10
2022-10-26T07:56:23.227Z,12.20
2022-10-26T07:58:52.993Z,12.30
2022-10-26T08:01:19.720Z,12.40
2022-10-26T08:03:46.508Z,12.50
2022-10-26T08:06:13.109Z,12.60
2022-10-26T08:08:43.521Z,12.70
2022-10-26T08:11:13.757Z,12.70
2022-10-26T08:13:40.390Z,12.80
2022-10-26T08:16:07.189Z,12.90
2022-10-26T08:18:33.837Z,13.00
2022-10-26T08:21:11.620Z,13.20
2022-10-26T08:23:40.275Z,13.20
2022-10-26T08:26:07.547Z,13.40
2022-10-26T08:28:34.272Z,13.40
2022-10-26T08:31:00.882Z,14.10
2022-10-26T08:33:27.446Z,15.40
2022-10-26T08:35:59.432Z,16.40
2022-10-26T08:38:26.799Z,17.90
2022-10-26T08:40:56.140Z,19.10
2022-10-26T08:43:26.831Z,19.80
2022-10-26T08:46:06.316Z,20.20
2022-10-26T08:48:37.281Z,20.60
2022-10-26T08:51:22.202Z,20.30
2022-10-26T08:53:59.818Z,20.30
2022-10-26T08:56:33.671Z,20.60
2022-10-26T08:59:12.215Z,20.00
2022-10-26T09:01:39.174Z,19.20
2022-10-26T09:04:11.689Z,18.50
2022-10-26T09:06:44.161Z,17.80
2022-10-26T09:09:53.072Z,17.40
2022-10-26T09:12:27.657Z,17.00
2022-10-26T09:14:57.266Z,16.70
2022-10-26T09:17:43.321Z,16.40
2022-10-26T09:20:28.006Z,16.20
2022-10-26T09:23:06.509Z,16.20
2022-10-26T09:25:39.722Z,16.10
2022-10-26T09:28:15.522Z,16.10
2022-10-26T09:30:45.652Z,16.20
2022-10-26T09:33:23.028Z,16.40
2022-10-26T09:36:01.210Z,16.50
2022-10-26T09:38:55.227Z,16.50
2022-10-26T09:41:41.986Z,16.40
2022-10-26T09:44:17.615Z,16.50
2022-10-26T09:47:00.018Z,16.70
2022-10-26T09:49:41.296Z,16.80
2022-10-26T09:52:08.268Z,16.90
2022-10-26T09:54:34.965Z,17.10
2022-10-26T09:57:02.524Z,17.20
2022-10-26T09:59:33.706Z,17.50
2022-10-26T10:02:00.579Z,17.60
2022-10-26T10:04:27.326Z,17.70
2022-10-26T10:07:13.983Z,17.80
2022-10-26T10:09:40.754Z,18.10
2022-10-26T10:12:20.404Z,18.20
2022-10-26T10:14:58.459Z,18.10
2022-10-26T10:17:25.705Z,17.70
2022-10-26T10:19:52.671Z,17.40
2022-10-26T10:22:24.098Z,17.10
2022-10-26T10:24:59.607Z,16.90
2022-10-26T10:27:28.082Z,16.70
2022-10-26T10:29:59.964Z,16.60
2022-10-26T10:32:35.448Z,16.60
2022-10-26T10:35:29.382Z,16.60
2022-10-26T10:37:56.480Z,16.70
2022-10-26T10:40:31.315Z,16.90
2022-10-26T10:43:12.318Z,17.00
2022-10-26T10:45:40.403Z,17.30
2022-10-26T10:48:12.740Z,17.50
2022-10-26T10:50:52.621Z,17.60
2022-10-26T10:53:37.185Z,17.90
2022-10-26T10:56:31.856Z,18.70
2022-10-26T10:59:36.221Z,19.20
2022-10-26T11:02:05.789Z,19.20
2022-10-26T11:04:56.074Z,19.20
2022-10-26T11:07:25.810Z,19.30
2022-10-26T11:15:14.270Z,19.40
2022-10-26T11:18:13.054Z,19.20
2022-10-26T11:20:46.039Z,19.30
2022-10-26T11:23:22.721Z,19.20
2022-10-26T11:26:18.620Z,19.30
2022-10-26T11:29:02.039Z,19.60
2022-10-26T11:31:44.033Z,20.60
2022-10-26T11:34:16.413Z,22.60
2022-10-26T11:36:49.139Z,23.70
2022-10-26T11:39:20.410Z,25.80
2022-10-26T11:42:03.105Z,26.90
2022-10-26T11:44:47.060Z,27.50
2022-10-26T11:47:43.743Z,27.20
2022-10-26T11:50:22.896Z,28.00
2022-10-26T11:53:18.078Z,27.90
2022-10-26T11:55:55.677Z,27.20
2022-10-26T11:58:26.333Z,27.90
2022-10-26T12:01:01.674Z,29.10
2022-10-26T12:03:36.427Z,28.40
2022-10-26T12:06:03.452Z,28.60
2022-10-26T12:08:38.548Z,29.80
2022-10-26T12:11:19.163Z,30.70
2022-10-26T12:13:52.475Z,30.50
2022-10-26T12:16:39.856Z,30.30
2022-10-26T12:19:19.535Z,29.40
2022-10-26T12:21:48.262Z,29.10
2022-10-26T12:24:23.841Z,28.60
2022-10-26T12:26:51.441Z,29.20
2022-10-26T12:29:29.980Z,29.30
2022-10-26T12:31:56.876Z,29.20
2022-10-26T12:34:44.283Z,29.20
2022-10-26T12:37:24.361Z,28.70
2022-10-26T12:39:51.342Z,29.30
2022-10-26T12:42:17.922Z,29.60
2022-10-26T12:44:47.196Z,28.40
2022-10-26T12:47:29.088Z,26.90
2022-10-26T12:49:58.860Z,25.70
2022-10-26T12:52:42.815Z,24.80
2022-10-26T12:55:12.445Z,23.70
2022-10-26T12:57:59.883Z,23.10
2022-10-26T13:00:27.973Z,22.40
2022-10-26T13:03:30.074Z,22.20
2022-10-26T13:06:34.386Z,23.00
2022-10-26T13:09:09.781Z,23.70
2022-10-26T13:11:38.342Z,24.50
2022-10-26T13:14:08.572Z,24.40
2022-10-26T13:16:35.472Z,24.00
2022-10-26T13:19:02.215Z,23.50
2022-10-26T13:21:28.874Z,23.20
2022-10-26T13:24:01.378Z,22.80
2022-10-26T13:26:30.195Z,22.40
2022-10-26T13:29:02.474Z,22.30
2022-10-26T13:31:29.083Z,22.30
2022-10-26T13:34:03.304Z,22.40
2022-10-26T13:36:44.826Z,22.60
2022-10-26T13:39:27.157Z,22.30
2022-10-26T13:41:56.127Z,22.40
2022-10-26T13:44:30.781Z,22.60
2022-10-26T13:47:04.937Z,22.50
2022-10-26T13:49:38.971Z,22.30
2022-10-26T13:52:12.470Z,22.10
2022-10-26T13:54:55.861Z,21.90
2022-10-26T13:57:25.624Z,21.70
2022-10-26T13:59:53.836Z,21.40
2022-10-26T14:02:26.024Z,21.20
2022-10-26T14:05:04.961Z,21.00
2022-10-26T14:10:26.805Z,20.80
2022-10-26T14:12:54.161Z,20.70
2022-10-26T14:15:32.556Z,20.60
2022-10-26T14:18:01.199Z,20.60
2022-10-26T14:20:29.931Z,20.40
2022-10-26T14:22:58.790Z,20.40
2022-10-26T14:25:41.756Z,20.30
2022-10-26T14:28:23.290Z,20.30
2022-10-26T14:30:51.212Z,20.20
2022-10-26T14:33:20.514Z,20.20
2022-10-26T14:35:47.794Z,20.30
2022-10-26T14:38:21.314Z,20.30
2022-10-26T14:40:49.369Z,20.40
2022-10-26T14:43:22.665Z,20.30
2022-10-26T14:45:51.914Z,20.20
2022-10-26T14:48:35.533Z,20.10
2022-10-26T14:51:06.987Z,20.00
2022-10-26T14:53:37.185Z,20.00
2022-10-26T14:56:05.899Z,19.80
2022-10-26T14:58:33.844Z,19.70
2022-10-26T15:01:22.554Z,19.70
2022-10-26T15:04:02.069Z,19.50
2022-10-26T15:06:28.678Z,19.40
2022-10-26T15:08:59.997Z,19.30
2022-10-26T15:11:27.880Z,19.20
2022-10-26T15:13:55.824Z,19.00
2022-10-26T15:16:26.005Z,18.90
2022-10-26T15:18:56.891Z,18.80
2022-10-26T15:21:34.471Z,18.70
2022-10-26T15:24:02.217Z,18.60
2022-10-26T15:26:29.330Z,18.40
2022-10-26T15:28:56.210Z,18.30
2022-10-26T15:31:32.066Z,18.20
2022-10-26T15:34:01.738Z,18.00
2022-10-26T15:36:33.196Z,17.90
2022-10-26T15:38:59.859Z,17.80
2022-10-26T15:41:44.201Z,17.60
2022-10-26T15:44:16.068Z,17.50
2022-10-26T15:46:43.150Z,17.30
2022-10-26T15:49:17.660Z,17.20
2022-10-26T15:51:46.510Z,17.10
2022-10-26T15:54:13.664Z,16.90
2022-10-26T15:56:43.483Z,16.80
2022-10-26T15:59:20.453Z,16.70
2022-10-26T16:01:47.184Z,16.50
2022-10-26T16:04:13.950Z,16.30
2022-10-26T16:06:42.001Z,16.20
2022-10-26T16:09:15.871Z,16.00
2022-10-26T16:11:43.607Z,15.90
2022-10-26T16:14:10.982Z,15.70
2022-10-26T16:16:37.621Z,15.60
2022-10-26T16:19:30.320Z,15.40
2022-10-26T16:21:51.515Z,15.30
2022-10-26T16:24:18.149Z,15.10
2022-10-26T16:26:45.085Z,15.00
2022-10-26T16:29:11.750Z,14.90
2022-10-26T16:31:38.366Z,14.80
2022-10-26T16:34:05.011Z,14.70
2022-10-26T16:36:34.883Z,14.60
2022-10-26T16:41:29.178Z,14.40
2022-10-26T16:43:56.465Z,14.20
2022-10-26T16:46:23.085Z,14.10
2022-10-26T16:48:50.807Z,14.10
2022-10-26T16:51:26.433Z,14.00
2022-10-26T16:53:54.928Z,13.90
2022-10-26T16:56:29.976Z,13.80
2022-10-26T16:58:57.079Z,13.70
2022-10-26T17:01:23.964Z,13.70
2022-10-26T17:03:52.774Z,13.60
2022-10-26T17:06:19.950Z,13.50
2022-10-26T17:08:46.995Z,13.40
2022-10-26T17:11:16.489Z,13.40
2022-10-26T17:13:44.263Z,13.30
2022-10-26T17:16:13.702Z,13.10
2022-10-26T17:18:44.504Z,13.10
2022-10-26T17:21:13.019Z,13.00
2022-10-26T17:23:39.994Z,13.00
2022-10-26T17:26:09.090Z,12.90
2022-10-26T17:28:36.310Z,12.80
2022-10-26T17:31:08.659Z,12.70
2022-10-26T17:33:38.431Z,12.70
2022-10-26T17:36:06.902Z,12.60
2022-10-26T17:38:35.168Z,12.60
2022-10-26T17:41:02.874Z,12.50
2022-10-26T17:43:34.102Z,12.50
2022-10-26T17:46:02.534Z,12.50
2022-10-26T17:48:30.392Z,12.40
2022-10-26T17:51:01.829Z,12.30
2022-10-26T17:53:29.354Z,12.30
2022-10-26T17:56:06.391Z,12.30
2022-10-26T17:58:34.180Z,12.20
2022-10-26T18:01:05.796Z,12.20
2022-10-26T18:03:33.214Z,12.10
2022-10-26T18:06:00.542Z,12.10
2022-10-26T18:08:30.993Z,12.00
2022-10-26T18:11:00.909Z,11.90
2022-10-26T18:13:29.049Z,11.80
2022-10-26T18:15:55.724Z,11.80
2022-10-26T18:18:22.290Z,11.80
2022-10-26T18:20:48.909Z,11.80
2022-10-26T18:23:15.849Z,11.80
2022-10-26T18:25:42.449Z,11.70
2022-10-26T18:28:09.136Z,11.60
2022-10-26T18:30:35.825Z,11.60
2022-10-26T18:33:02.415Z,11.60
2022-10-26T18:35:29.014Z,11.60
2022-10-26T18:37:55.597Z,11.60
2022-10-26T18:40:22.324Z,11.60
2022-10-26T18:42:48.972Z,11.50
2022-10-26T18:45:15.744Z,11.50
2022-10-26T18:47:42.347Z,11.50
2022-10-26T18:50:09.111Z,11.50
2022-10-26T18:52:35.726Z,11.50
2022-10-26T18:55:03.505Z,11.40
2022-10-26T18:57:30.144Z,11.20
2022-10-26T18:59:56.808Z,11.20
2022-10-26T19:02:23.480Z,11.20
2022-10-26T19:04:53.071Z,11.20
2022-10-26T19:07:20.154Z,11.20
2022-10-26T19:09:46.771Z,11.20
2022-10-26T19:12:13.337Z,11.20
2022-10-26T19:14:39.963Z,11.10
2022-10-26T19:17:06.921Z,11.10
2022-10-26T19:19:33.588Z,11.00
2022-10-26T19:22:00.969Z,11.00
2022-10-26T19:24:27.631Z,10.90
2022-10-26T19:26:54.283Z,10.80
2022-10-26T19:29:21.401Z,10.90
2022-10-26T19:31:50.716Z,10.80
2022-10-26T19:34:17.994Z,10.80
2022-10-26T19:36:46.728Z,10.80
2022-10-26T19:39:17.643Z,10.70
2022-10-26T19:41:45.909Z,10.70
2022-10-26T19:44:13.931Z,10.80
2022-10-26T19:46:40.665Z,10.80
2022-10-26T19:49:07.689Z,10.70
2022-10-26T19:51:34.865Z,10.70
2022-10-26T19:54:03.865Z,10.70
2022-10-26T19:56:31.785Z,10.70
2022-10-26T19:58:58.412Z,10.70
2022-10-26T20:01:25.309Z,10.60
2022-10-26T20:03:51.991Z,10.60
2022-10-26T20:06:18.656Z,10.40
2022-10-26T20:08:47.826Z,10.50
2022-10-26T20:11:16.563Z,10.50
2022-10-26T20:13:44.700Z,10.40
2022-10-26T20:16:12.025Z,10.40
2022-10-26T20:18:42.640Z,10.40
2022-10-26T20:21:16.326Z,10.40
2022-10-26T20:23:43.819Z,10.40
2022-10-26T20:26:18.004Z,10.30
2022-10-26T20:28:48.346Z,10.30
2022-10-26T20:31:14.987Z,10.20
2022-10-26T20:33:41.566Z,10.20
2022-10-26T20:36:08.408Z,10.00
2022-10-26T20:38:35.375Z,10.10
2022-10-26T20:41:06.105Z,10.00
2022-10-26T20:43:38.496Z,10.10
2022-10-26T20:46:05.834Z,10.00
2022-10-26T20:48:32.794Z,10.00
2022-10-26T20:51:06.162Z,10.00
2022-10-26T20:53:38.148Z,9.90
2022-10-26T20:56:10.590Z,9.90
2022-10-26T20:58:43.312Z,9.90
2022-10-26T21:01:27.185Z,9.90
2022-10-26T21:03:55.875Z,9.80
2022-10-26T21:06:24.669Z,9.80
2022-10-26T21:08:52.617Z,9.80
2022-10-26T21:11:20.772Z,9.70
2022-10-26T21:13:49.020Z,9.80
2022-10-26T21:16:17.214Z,9.70
2022-10-26T21:18:44.372Z,9.70
2022-10-26T21:21:11.214Z,9.60
2022-10-26T21:23:40.016Z,9.60
2022-10-26T21:26:08.341Z,9.60
2022-10-26T21:28:34.890Z,9.60
2022-10-26T21:31:03.380Z,9.60
2022-10-26T21:33:34.213Z,9.60
2022-10-26T21:36:02.455Z,9.50
2022-10-26T21:38:30.769Z,9.50
2022-10-26T21:41:18.415Z,9.50
2022-10-26T21:43:48.417Z,9.50
2022-10-26T21:46:16.569Z,9.50
2022-10-26T21:48:43.538Z,9.50
2022-10-26T21:51:16.343Z,9.40
2022-10-26T21:53:43.673Z,9.30
2022-10-26T21:56:17.809Z,9.30
2022-10-26T21:58:44.865Z,9.30
2022-10-26T22:01:14.143Z,9.20
2022-10-26T22:03:41.534Z,9.20
2022-10-26T22:06:09.956Z,9.30
2022-10-26T22:08:36.961Z,9.30
2022-10-26T22:11:18.269Z,9.20
2022-10-26T22:13:46.322Z,9.20
2022-10-26T22:16:22.281Z,9.20
2022-10-26T22:18:50.791Z,9.10
2022-10-26T22:21:19.376Z,9.10
2022-10-26T22:23:46.751Z,9.00
2022-10-26T22:26:21.662Z,8.90
2022-10-26T22:28:50.719Z,8.90
2022-10-26T22:34:08.090Z,8.90
2022-10-26T22:36:35.281Z,8.90
2022-10-26T22:39:03.709Z,8.90
2022-10-26T22:41:30.749Z,8.90
2022-10-26T22:43:57.497Z,8.90
2022-10-26T22:46:26.558Z,8.90
2022-10-26T22:48:55.157Z,8.80
2022-10-26T22:51:23.188Z,8.70
2022-10-26T22:53:57.646Z,8.60
2022-10-26T22:58:52.582Z,8.70
2022-10-26T23:01:25.519Z,8.70
2022-10-26T23:03:55.941Z,8.70
2022-10-26T23:06:25.006Z,8.60
2022-10-26T23:08:51.995Z,8.60
2022-10-26T23:11:20.970Z,8.60
2022-10-26T23:13:48.063Z,8.60
2022-10-26T23:16:17.919Z,8.60
2022-10-26T23:18:44.650Z,8.60
2022-10-26T23:21:12.526Z,8.60
2022-10-26T23:23:39.847Z,8.60
2022-10-26T23:26:09.220Z,8.60
2022-10-26T23:28:36.516Z,8.40
2022-10-26T23:31:03.165Z,8.40
2022-10-26T23:33:30.191Z,8.40
2022-10-26T23:35:57.445Z,8.40
2022-10-26T23:38:25.382Z,8.50
2022-10-26T23:40:56.680Z,8.40
2022-10-26T23:43:25.419Z,8.40
2022-10-26T23:45:52.553Z,8.40
2022-10-26T23:48:19.861Z,8.40
2022-10-26T23:50:48.422Z,8.40
2022-10-26T23:53:16.988Z,8.30
2022-10-26T23:55:47.063Z,8.30
2022-10-26T23:58:14.779Z,8.30
